createdAt,value
2019-02-23T00:01:25.246Z,18.03
2019-02-23T00:03:54.268Z,23.38
2019-02-23T00:06:29.899Z,17.48
2019-02-23T00:08:52.215Z,26.07
2019-02-23T00:11:20.273Z,21.27
2019-02-23T00:13:48.354Z,32.17
2019-02-23T00:16:16.686Z,23.50
2019-02-23T00:18:44.622Z,28.50
2019-02-23T00:21:14.608Z,24.47
2019-02-23T00:23:43.005Z,29.60
2019-02-23T00:26:11.115Z,25.50
2019-02-23T00:28:39.055Z,16.37
2019-02-23T00:31:07.440Z,28.87
2019-02-23T00:33:35.512Z,31.35
2019-02-23T00:36:03.440Z,27.82
2019-02-23T00:38:31.426Z,29.60
2019-02-23T00:40:59.413Z,31.12
2019-02-23T00:43:27.489Z,27.07
2019-02-23T00:45:55.888Z,21.95
2019-02-23T00:48:24.028Z,24.30
2019-02-23T00:50:51.943Z,25.37
2019-02-23T00:53:30.580Z,19.15
2019-02-23T00:55:58.570Z,26.07
2019-02-23T00:58:26.494Z,26.12
2019-02-23T01:00:54.378Z,21.33
2019-02-23T01:03:22.338Z,19.92
2019-02-23T01:05:50.520Z,21.70
2019-02-23T01:08:18.484Z,26.73
2019-02-23T01:10:57.507Z,18.67
2019-02-23T01:13:15.995Z,24.98
2019-02-23T01:15:44.039Z,24.23
2019-02-23T01:18:11.977Z,20.85
2019-02-23T01:20:39.924Z,34.20
2019-02-23T01:23:08.171Z,31.90
2019-02-23T01:25:36.131Z,31.12
2019-02-23T01:28:04.108Z,33.35
2019-02-23T01:30:32.028Z,32.95
2019-02-23T01:33:00.057Z,23.75
2019-02-23T01:35:28.062Z,34.00
2019-02-23T01:37:56.516Z,38.53
2019-02-23T01:40:24.422Z,31.80
2019-02-23T01:42:52.609Z,28.77
2019-02-23T01:45:20.709Z,37.88
2019-02-23T01:47:48.738Z,29.10
2019-02-23T01:50:16.695Z,39.50
2019-02-23T01:52:44.667Z,39.38
2019-02-23T01:55:12.679Z,33.42
2019-02-23T01:57:40.615Z,35.48
2019-02-23T02:00:08.757Z,35.60
2019-02-23T02:02:36.681Z,33.02
2019-02-23T02:05:04.728Z,28.17
2019-02-23T02:07:32.703Z,33.42
2019-02-23T02:10:00.623Z,25.85
2019-02-23T02:12:28.586Z,34.20
2019-02-23T02:14:56.612Z,30.45
2019-02-23T02:17:24.508Z,30.55
2019-02-23T02:19:52.471Z,25.77
2019-02-23T02:22:20.580Z,33.23
2019-02-23T02:24:48.859Z,30.30
2019-02-23T02:27:17.036Z,21.97
2019-02-23T02:29:45.310Z,27.17
2019-02-23T02:32:13.382Z,35.33
2019-02-23T02:34:41.537Z,21.93
2019-02-23T02:37:09.822Z,24.30
2019-02-23T02:39:38.146Z,24.18
2019-02-23T02:42:06.269Z,29.95
2019-02-23T02:44:34.547Z,24.82
2019-02-23T02:47:02.740Z,22.82
2019-02-23T02:49:30.890Z,22.62
2019-02-23T02:51:59.085Z,22.25
2019-02-23T02:54:27.279Z,33.67
2019-02-23T02:56:55.431Z,21.68
2019-02-23T02:59:23.591Z,32.33
2019-02-23T03:01:51.671Z,35.78
2019-02-23T03:04:19.957Z,42.50
2019-02-23T03:06:48.220Z,39.33
2019-02-23T03:09:16.310Z,36.90
2019-02-23T03:11:44.476Z,39.53
2019-02-23T03:14:12.453Z,33.67
2019-02-23T03:16:40.618Z,26.87
2019-02-23T03:19:08.800Z,32.20
2019-02-23T03:21:36.961Z,31.57
2019-02-23T03:24:05.254Z,25.75
2019-02-23T03:26:33.509Z,23.45
2019-02-23T03:29:01.892Z,33.67
2019-02-23T03:31:29.986Z,26.73
2019-02-23T03:33:58.557Z,25.20
2019-02-23T03:36:26.829Z,35.60
2019-02-23T03:38:55.212Z,18.75
2019-02-23T03:41:23.283Z,23.57
2019-02-23T03:43:51.572Z,30.10
2019-02-23T03:46:19.937Z,28.40
2019-02-23T03:48:48.011Z,23.45
2019-02-23T03:51:16.257Z,24.30
2019-02-23T03:53:45.407Z,27.25
2019-02-23T03:56:13.352Z,24.67
2019-02-23T03:58:41.269Z,26.62
2019-02-23T04:01:09.410Z,28.67
2019-02-23T04:03:37.518Z,30.80
2019-02-23T04:06:05.624Z,23.87
2019-02-23T04:08:33.566Z,26.75
2019-02-23T04:11:01.795Z,23.95
2019-02-23T04:13:29.852Z,25.45
2019-02-23T04:15:58.030Z,20.55
2019-02-23T04:18:26.615Z,20.75
2019-02-23T04:21:01.730Z,26.42
2019-02-23T04:23:24.807Z,20.70
2019-02-23T04:25:53.284Z,22.02
2019-02-23T04:28:21.565Z,20.40
2019-02-23T04:30:49.853Z,27.98
2019-02-23T04:33:18.105Z,15.55
2019-02-23T04:35:49.331Z,20.23
2019-02-23T04:38:17.202Z,27.55
2019-02-23T04:40:45.283Z,29.63
2019-02-23T04:43:13.666Z,26.70
2019-02-23T04:45:41.757Z,26.57
2019-02-23T04:48:09.806Z,23.57
2019-02-23T04:50:38.102Z,28.50
2019-02-23T04:53:06.071Z,25.40
2019-02-23T04:55:34.245Z,20.05
2019-02-23T04:58:02.504Z,18.67
2019-02-23T05:00:31.007Z,21.30
2019-02-23T05:02:59.176Z,20.15
2019-02-23T05:05:27.438Z,17.70
2019-02-23T05:07:55.422Z,22.95
2019-02-23T05:10:23.483Z,14.35
2019-02-23T05:12:51.776Z,24.73
2019-02-23T05:15:20.150Z,25.90
2019-02-23T05:17:49.086Z,19.60
2019-02-23T05:20:17.212Z,18.07
2019-02-23T05:22:45.285Z,16.60
2019-02-23T05:25:13.347Z,19.53
2019-02-23T05:27:41.523Z,15.33
2019-02-23T05:30:09.920Z,17.20
2019-02-23T05:32:37.985Z,14.63
2019-02-23T05:35:06.248Z,20.12
2019-02-23T05:37:34.435Z,21.07
2019-02-23T05:40:02.815Z,21.45
2019-02-23T05:42:34.679Z,16.07
2019-02-23T05:45:03.168Z,25.57
2019-02-23T05:47:31.208Z,16.85
2019-02-23T05:49:59.589Z,17.52
2019-02-23T05:52:27.510Z,21.00
2019-02-23T05:54:55.486Z,21.23
2019-02-23T05:57:23.449Z,18.35
2019-02-23T05:59:51.388Z,17.75
2019-02-23T06:02:19.305Z,18.17
2019-02-23T06:04:47.339Z,15.80
2019-02-23T06:07:15.774Z,16.85
2019-02-23T06:09:43.706Z,18.00
2019-02-23T06:12:11.689Z,15.05
2019-02-23T06:14:40.704Z,21.93
2019-02-23T06:17:08.664Z,15.25
2019-02-23T06:19:36.623Z,16.73
2019-02-23T06:22:04.587Z,31.10
2019-02-23T06:24:32.509Z,24.65
2019-02-23T06:27:00.587Z,15.40
2019-02-23T06:29:28.484Z,16.87
2019-02-23T06:31:56.402Z,17.60
2019-02-23T06:34:26.101Z,15.23
2019-02-23T06:36:54.050Z,18.42
2019-02-23T06:39:21.971Z,16.87
2019-02-23T06:41:49.941Z,24.27
2019-02-23T06:44:18.008Z,27.40
2019-02-23T06:46:46.085Z,15.98
2019-02-23T06:49:14.344Z,15.48
2019-02-23T06:51:42.528Z,18.32
2019-02-23T06:54:10.692Z,14.20
2019-02-23T06:56:38.881Z,19.40
2019-02-23T06:59:07.257Z,14.23
2019-02-23T07:01:35.370Z,16.93
2019-02-23T07:04:03.604Z,21.57
2019-02-23T07:06:31.704Z,14.47
2019-02-23T07:08:59.950Z,15.23
2019-02-23T07:11:29.862Z,12.20
2019-02-23T07:13:58.448Z,15.28
2019-02-23T07:16:27.033Z,16.73
2019-02-23T07:18:55.125Z,17.42
2019-02-23T07:21:23.265Z,24.63
2019-02-23T07:23:51.671Z,16.77
2019-02-23T07:26:19.920Z,20.77
2019-02-23T07:28:48.102Z,21.00
2019-02-23T07:31:16.491Z,21.93
2019-02-23T07:33:44.670Z,25.30
2019-02-23T07:36:12.742Z,34.57
2019-02-23T07:38:40.901Z,39.58
2019-02-23T07:41:08.981Z,37.77
2019-02-23T07:43:38.706Z,42.40
2019-02-23T07:46:06.745Z,82.10
2019-02-23T07:48:34.922Z,81.67
2019-02-23T07:51:03.115Z,49.77
2019-02-23T07:53:31.171Z,66.07
2019-02-23T07:55:59.352Z,70.13
2019-02-23T07:58:27.448Z,54.80
2019-02-23T08:00:55.489Z,43.07
2019-02-23T08:03:23.561Z,50.90
2019-02-23T08:05:51.631Z,53.13
2019-02-23T08:08:19.823Z,32.57
2019-02-23T08:10:47.989Z,18.50
2019-02-23T08:13:15.938Z,20.03
2019-02-23T08:15:43.863Z,26.97
2019-02-23T08:18:11.839Z,16.47
2019-02-23T08:20:39.771Z,14.57
2019-02-23T08:23:07.679Z,18.43
2019-02-23T08:25:35.867Z,14.87
2019-02-23T08:28:03.819Z,17.33
2019-02-23T08:30:31.750Z,12.30
2019-02-23T08:32:59.825Z,13.87
2019-02-23T08:35:27.729Z,10.87
2019-02-23T08:37:55.644Z,18.03
2019-02-23T08:40:23.750Z,18.50
2019-02-23T08:42:51.651Z,18.60
2019-02-23T08:45:19.548Z,14.30
2019-02-23T08:47:47.481Z,15.60
2019-02-23T08:50:15.417Z,15.57
2019-02-23T08:52:49.328Z,17.43
2019-02-23T08:55:12.873Z,12.60
2019-02-23T08:57:40.790Z,20.27
2019-02-23T09:00:08.901Z,14.90
2019-02-23T09:02:37.288Z,16.93
2019-02-23T09:05:05.208Z,12.13
2019-02-23T09:07:33.137Z,15.60
2019-02-23T09:10:01.188Z,18.37
2019-02-23T09:12:29.115Z,17.57
2019-02-23T09:14:57.023Z,17.83
2019-02-23T09:17:25.116Z,16.07
2019-02-23T09:19:53.133Z,22.07
2019-02-23T09:22:21.253Z,16.63
2019-02-23T09:24:49.201Z,16.57
2019-02-23T09:27:17.295Z,18.60
2019-02-23T09:29:45.469Z,16.57
2019-02-23T09:32:13.414Z,20.37
2019-02-23T09:34:41.511Z,13.87
2019-02-23T09:37:09.454Z,18.80
2019-02-23T09:39:37.421Z,19.13
2019-02-23T09:42:07.706Z,21.13
2019-02-23T09:44:35.139Z,11.33
2019-02-23T09:47:03.335Z,14.03
2019-02-23T09:49:31.314Z,11.53
2019-02-23T09:51:59.266Z,14.63
2019-02-23T09:54:27.198Z,13.17
2019-02-23T09:56:55.312Z,13.80
2019-02-23T09:59:23.231Z,15.60
2019-02-23T10:01:51.091Z,17.60
2019-02-23T10:04:18.988Z,17.90
2019-02-23T10:06:47.210Z,18.03
2019-02-23T10:09:15.132Z,15.30
2019-02-23T10:11:43.733Z,17.83
2019-02-23T10:14:11.673Z,20.40
2019-02-23T10:16:39.561Z,14.83
2019-02-23T10:19:07.678Z,14.20
2019-02-23T10:21:35.590Z,16.40
2019-02-23T10:24:03.467Z,12.33
2019-02-23T10:26:31.303Z,18.83
2019-02-23T10:28:59.404Z,14.77
2019-02-23T10:31:28.268Z,14.37
2019-02-23T10:33:56.140Z,13.30
2019-02-23T10:36:24.113Z,19.43
2019-02-23T10:38:52.010Z,11.70
2019-02-23T10:41:19.897Z,19.60
2019-02-23T10:43:47.890Z,15.10
2019-02-23T10:46:15.771Z,15.70
2019-02-23T10:48:43.697Z,15.57
2019-02-23T10:51:11.634Z,15.83
2019-02-23T10:53:39.528Z,17.50
2019-02-23T10:56:07.512Z,17.73
2019-02-23T10:58:35.417Z,20.27
2019-02-23T11:01:03.300Z,22.03
2019-02-23T11:03:31.201Z,16.27
2019-02-23T11:05:59.462Z,16.50
2019-02-23T11:08:27.505Z,19.13
2019-02-23T11:10:55.417Z,13.80
2019-02-23T11:13:23.375Z,18.90
2019-02-23T11:15:51.399Z,20.87
2019-02-23T11:18:19.286Z,19.00
2019-02-23T11:20:47.268Z,24.10
2019-02-23T11:23:15.645Z,17.60
2019-02-23T11:25:43.717Z,16.50
2019-02-23T11:28:12.981Z,15.00
2019-02-23T11:30:41.071Z,16.17
2019-02-23T11:33:09.015Z,16.10
2019-02-23T11:35:37.254Z,16.90
2019-02-23T11:38:05.304Z,19.40
2019-02-23T11:40:33.376Z,16.93
2019-02-23T11:43:01.759Z,20.20
2019-02-23T11:45:30.998Z,21.70
2019-02-23T11:47:59.321Z,23.37
2019-02-23T11:50:27.404Z,13.97
2019-02-23T11:52:55.377Z,17.27
2019-02-23T11:55:23.470Z,17.53
2019-02-23T11:57:51.419Z,21.30
2019-02-23T12:00:19.397Z,17.33
2019-02-23T12:02:52.590Z,17.30
2019-02-23T12:05:17.373Z,19.00
2019-02-23T12:07:45.251Z,12.27
2019-02-23T12:10:13.167Z,14.70
2019-02-23T12:12:41.112Z,17.63
2019-02-23T12:15:09.280Z,14.43
2019-02-23T12:17:39.176Z,18.37
2019-02-23T12:20:07.053Z,21.20
2019-02-23T12:22:35.063Z,28.93
2019-02-23T12:25:02.974Z,14.53
2019-02-23T12:27:30.948Z,16.10
2019-02-23T12:29:58.865Z,15.73
2019-02-23T12:32:26.755Z,18.50
2019-02-23T12:34:54.842Z,14.47
2019-02-23T12:37:22.991Z,18.53
2019-02-23T12:39:50.917Z,14.47
2019-02-23T12:42:18.831Z,12.30
2019-02-23T12:44:46.937Z,16.20
2019-02-23T12:47:15.027Z,21.83
2019-02-23T12:49:42.979Z,19.20
2019-02-23T12:52:10.898Z,14.30
2019-02-23T12:54:38.855Z,8.87
2019-02-23T12:57:06.818Z,12.77
2019-02-23T12:59:35.592Z,18.50
2019-02-23T13:02:03.523Z,19.30
2019-02-23T13:04:31.539Z,17.97
2019-02-23T13:06:59.469Z,12.50
2019-02-23T13:09:27.467Z,19.57
2019-02-23T13:11:55.864Z,18.77
2019-02-23T13:14:23.772Z,14.80
2019-02-23T13:16:51.909Z,14.50
2019-02-23T13:19:19.846Z,16.40
2019-02-23T13:21:47.815Z,24.97
2019-02-23T13:24:15.797Z,18.20
2019-02-23T13:26:43.779Z,18.70
2019-02-23T13:29:11.685Z,20.67
2019-02-23T13:31:39.607Z,14.80
2019-02-23T13:34:07.800Z,22.10
2019-02-23T13:36:35.763Z,12.63
2019-02-23T13:39:04.053Z,14.70
2019-02-23T13:41:31.978Z,19.47
2019-02-23T13:43:59.925Z,17.53
2019-02-23T13:46:27.917Z,18.30
2019-02-23T13:48:55.822Z,15.33
2019-02-23T13:51:23.750Z,22.17
2019-02-23T13:53:51.694Z,18.93
2019-02-23T13:56:19.904Z,13.33
2019-02-23T13:58:47.930Z,14.03
2019-02-23T14:01:15.896Z,17.20
2019-02-23T14:03:43.840Z,18.43
2019-02-23T14:06:11.746Z,13.20
2019-02-23T14:08:39.635Z,17.37
2019-02-23T14:11:07.586Z,12.90
2019-02-23T14:13:35.691Z,12.20
2019-02-23T14:16:03.607Z,11.67
2019-02-23T14:18:32.528Z,19.33
2019-02-23T14:21:00.434Z,12.90
2019-02-23T14:23:28.345Z,18.80
2019-02-23T14:25:57.081Z,19.53
2019-02-23T14:28:25.172Z,20.10
2019-02-23T14:30:53.210Z,10.60
2019-02-23T14:33:21.284Z,19.23
2019-02-23T14:35:49.201Z,14.97
2019-02-23T14:38:17.121Z,15.03
2019-02-23T14:40:45.259Z,17.30
2019-02-23T14:43:13.196Z,19.93
2019-02-23T14:45:41.139Z,19.80
2019-02-23T14:48:09.184Z,14.63
2019-02-23T14:50:37.090Z,11.20
2019-02-23T14:53:04.994Z,12.87
2019-02-23T14:55:33.293Z,12.57
2019-02-23T14:58:01.245Z,13.33
2019-02-23T15:00:29.373Z,12.87
2019-02-23T15:02:57.699Z,22.70
2019-02-23T15:05:25.651Z,20.10
2019-02-23T15:07:53.546Z,15.00
2019-02-23T15:10:21.752Z,12.07
2019-02-23T15:12:49.649Z,17.03
2019-02-23T15:15:17.563Z,13.90
2019-02-23T15:17:45.718Z,27.33
2019-02-23T15:20:14.167Z,15.43
2019-02-23T15:22:42.126Z,16.40
2019-02-23T15:25:13.186Z,17.87
2019-02-23T15:27:39.766Z,11.03
2019-02-23T15:30:07.646Z,11.80
2019-02-23T15:32:37.458Z,25.33
2019-02-23T15:35:05.543Z,17.67
2019-02-23T15:37:33.485Z,15.53
2019-02-23T15:40:01.433Z,15.67
2019-02-23T15:42:29.372Z,16.17
2019-02-23T15:44:57.226Z,17.27
2019-02-23T15:47:25.236Z,11.20
2019-02-23T15:49:55.781Z,13.70
2019-02-23T15:52:22.765Z,17.63
2019-02-23T15:54:50.685Z,12.57
2019-02-23T15:57:18.869Z,12.67
2019-02-23T15:59:46.794Z,24.00
2019-02-23T16:02:14.731Z,17.07
2019-02-23T16:04:42.684Z,26.27
2019-02-23T16:07:10.583Z,16.13
2019-02-23T16:09:38.476Z,19.77
2019-02-23T16:12:09.132Z,17.13
2019-02-23T16:14:37.016Z,18.80
2019-02-23T16:17:05.095Z,22.20
2019-02-23T16:19:33.047Z,23.70
2019-02-23T16:22:01.041Z,27.50
2019-02-23T16:24:28.996Z,23.10
2019-02-23T16:26:57.027Z,21.87
2019-02-23T16:29:24.968Z,19.23
2019-02-23T16:31:52.894Z,21.73
2019-02-23T16:34:20.838Z,14.53
2019-02-23T16:36:50.001Z,20.83
2019-02-23T16:39:17.962Z,26.53
2019-02-23T16:41:46.332Z,19.90
2019-02-23T16:44:14.394Z,19.00
2019-02-23T16:46:42.480Z,12.50
2019-02-23T16:49:11.590Z,13.17
2019-02-23T16:51:39.720Z,18.13
2019-02-23T16:54:07.816Z,18.70
2019-02-23T16:56:35.886Z,15.33
2019-02-23T16:59:04.863Z,19.10
2019-02-23T17:01:32.965Z,15.13
2019-02-23T17:04:01.128Z,25.67
2019-02-23T17:06:32.749Z,22.30
2019-02-23T17:08:59.814Z,21.70
2019-02-23T17:11:28.005Z,17.67
2019-02-23T17:13:56.184Z,20.07
2019-02-23T17:16:24.263Z,14.07
2019-02-23T17:18:52.833Z,20.23
2019-02-23T17:21:21.099Z,26.70
2019-02-23T17:23:49.114Z,21.50
2019-02-23T17:26:17.357Z,22.80
2019-02-23T17:28:45.406Z,21.03
2019-02-23T17:31:13.373Z,25.90
2019-02-23T17:33:41.572Z,19.33
2019-02-23T17:36:09.536Z,18.50
2019-02-23T17:38:37.613Z,18.20
2019-02-23T17:41:05.670Z,16.10
2019-02-23T17:43:33.654Z,16.90
2019-02-23T17:46:01.831Z,17.53
2019-02-23T17:50:57.767Z,14.53
2019-02-23T17:53:25.738Z,15.57
2019-02-23T17:55:53.809Z,18.80
2019-02-23T17:58:21.887Z,14.40
2019-02-23T18:00:49.933Z,15.63
2019-02-23T18:03:18.023Z,17.43
2019-02-23T18:05:45.978Z,15.87
2019-02-23T18:08:13.962Z,20.00
2019-02-23T18:10:41.935Z,9.83
2019-02-23T18:13:09.908Z,12.17
2019-02-23T18:15:37.868Z,10.20
2019-02-23T18:18:06.042Z,13.00
2019-02-23T18:20:34.115Z,12.23
2019-02-23T18:23:02.279Z,10.93
2019-02-23T18:25:30.259Z,11.27
2019-02-23T18:27:58.231Z,8.00
2019-02-23T18:30:26.303Z,15.20
2019-02-23T18:32:54.274Z,16.77
2019-02-23T18:35:22.419Z,8.30
2019-02-23T18:37:50.413Z,8.93
2019-02-23T18:40:18.359Z,10.83
2019-02-23T18:42:46.566Z,11.70
2019-02-23T18:45:14.641Z,8.73
2019-02-23T18:47:42.701Z,11.53
2019-02-23T18:50:10.671Z,10.07
2019-02-23T18:52:38.616Z,12.80
2019-02-23T18:55:06.715Z,10.93
2019-02-23T18:57:36.729Z,7.93
2019-02-23T19:00:04.701Z,15.33
2019-02-23T19:02:32.669Z,7.10
2019-02-23T19:05:00.827Z,15.73
2019-02-23T19:07:28.914Z,12.10
2019-02-23T19:09:56.863Z,12.03
2019-02-23T19:12:24.958Z,9.97
2019-02-23T19:14:53.134Z,13.40
2019-02-23T19:17:21.185Z,13.83
2019-02-23T19:19:49.787Z,17.40
2019-02-23T19:22:17.865Z,17.77
2019-02-23T19:24:45.935Z,12.33
2019-02-23T19:27:13.999Z,14.20
2019-02-23T19:29:43.538Z,12.53
2019-02-23T19:32:11.680Z,10.33
2019-02-23T19:34:39.738Z,15.33
2019-02-23T19:37:07.929Z,22.27
2019-02-23T19:39:37.629Z,12.67
2019-02-23T19:42:05.812Z,13.03
2019-02-23T19:44:35.493Z,17.13
2019-02-23T19:47:03.592Z,12.90
2019-02-23T19:49:31.770Z,14.10
2019-02-23T19:51:59.737Z,16.03
2019-02-23T19:54:28.011Z,9.93
2019-02-23T19:56:57.584Z,11.90
2019-02-23T19:59:25.805Z,13.47
2019-02-23T20:01:53.874Z,12.20
2019-02-23T20:04:22.045Z,12.27
2019-02-23T20:06:50.306Z,15.20
2019-02-23T20:09:18.390Z,11.50
2019-02-23T20:14:44.472Z,12.17
2019-02-23T20:17:12.604Z,17.02
2019-02-23T20:19:40.794Z,14.43
2019-02-23T20:22:08.959Z,14.70
2019-02-23T20:24:37.994Z,16.13
2019-02-23T20:27:06.336Z,14.50
2019-02-23T20:29:34.474Z,14.87
2019-02-23T20:32:02.479Z,12.80
2019-02-23T20:34:30.801Z,12.87
2019-02-23T20:36:58.923Z,13.37
2019-02-23T20:39:28.264Z,15.80
2019-02-23T20:41:56.398Z,10.53
2019-02-23T20:44:24.470Z,10.35
2019-02-23T20:46:52.644Z,11.90
2019-02-23T20:49:20.715Z,9.20
2019-02-23T20:51:48.896Z,12.63
2019-02-23T20:54:16.937Z,9.15
2019-02-23T20:56:45.037Z,17.98
2019-02-23T20:59:13.108Z,13.27
2019-02-23T21:01:41.282Z,12.87
2019-02-23T21:04:10.480Z,13.40
2019-02-23T21:06:40.475Z,13.35
2019-02-23T21:09:08.785Z,15.90
2019-02-23T21:11:36.956Z,12.43
2019-02-23T21:14:05.329Z,11.93
2019-02-23T21:16:33.505Z,11.90
2019-02-23T21:19:02.087Z,18.00
2019-02-23T21:21:30.142Z,12.43
2019-02-23T21:23:58.099Z,12.98
2019-02-23T21:26:26.408Z,21.65
2019-02-23T21:28:54.683Z,12.25
2019-02-23T21:31:22.958Z,17.27
2019-02-23T21:33:50.898Z,19.30
2019-02-23T21:36:18.993Z,20.90
2019-02-23T21:38:46.969Z,13.90
2019-02-23T21:41:15.035Z,11.80
2019-02-23T21:43:43.015Z,14.23
2019-02-23T21:46:11.267Z,11.10
2019-02-23T21:48:39.228Z,17.80
2019-02-23T21:51:07.222Z,19.92
2019-02-23T21:53:35.388Z,13.70
2019-02-23T21:56:03.597Z,14.83
2019-02-23T21:58:31.890Z,16.37
2019-02-23T22:01:01.778Z,19.10
2019-02-23T22:03:30.037Z,14.77
2019-02-23T22:05:58.119Z,18.15
2019-02-23T22:08:26.169Z,17.93
2019-02-23T22:10:54.237Z,15.88
2019-02-23T22:13:22.330Z,15.75
2019-02-23T22:15:50.710Z,16.13
2019-02-23T22:18:19.068Z,14.00
2019-02-23T22:20:47.063Z,14.15
2019-02-23T22:23:15.335Z,16.77
2019-02-23T22:25:43.523Z,12.28
2019-02-23T22:28:11.721Z,16.48
2019-02-23T22:30:41.213Z,15.13
2019-02-23T22:33:09.475Z,20.55
2019-02-23T22:35:37.641Z,23.18
2019-02-23T22:38:06.101Z,22.93
2019-02-23T22:40:34.542Z,20.15
2019-02-23T22:43:02.794Z,21.57
2019-02-23T22:45:31.051Z,22.93
2019-02-23T22:47:59.547Z,19.65
2019-02-23T22:50:27.621Z,23.55
2019-02-23T22:52:55.908Z,23.45
2019-02-23T22:55:24.341Z,24.45
2019-02-23T22:57:52.462Z,29.98
2019-02-23T23:00:24.122Z,22.90
2019-02-23T23:02:52.472Z,27.90
2019-02-23T23:05:20.846Z,25.68
2019-02-23T23:07:48.854Z,25.80
2019-02-23T23:10:17.082Z,24.25
2019-02-23T23:12:45.284Z,24.30
2019-02-23T23:15:13.956Z,23.47
2019-02-23T23:17:42.311Z,27.67
2019-02-23T23:20:10.621Z,24.80
2019-02-23T23:22:38.991Z,25.72
2019-02-23T23:25:06.958Z,27.90
2019-02-23T23:27:35.151Z,27.75
2019-02-23T23:30:03.711Z,24.40
2019-02-23T23:32:31.905Z,27.58
2019-02-23T23:35:00.308Z,31.48
2019-02-23T23:37:28.864Z,25.27
2019-02-23T23:39:56.965Z,30.77
2019-02-23T23:42:25.402Z,27.52
2019-02-23T23:44:53.680Z,32.10
2019-02-23T23:47:21.648Z,27.02
2019-02-23T23:49:50.011Z,25.75
2019-02-23T23:52:18.283Z,31.73
2019-02-23T23:54:46.274Z,26.65
2019-02-23T23:57:14.461Z,25.00
2019-02-23T23:59:42.839Z,31.60
